createdAt,value
2022-08-17T00:00:34.312Z,35.97
2022-08-17T00:05:41.143Z,32.88
2022-08-17T00:10:47.617Z,32.28
2022-08-17T00:15:49.580Z,35.58
2022-08-17T00:20:51.667Z,34.95
2022-08-17T00:25:53.855Z,34.90
2022-08-17T00:30:55.419Z,32.90
2022-08-17T00:35:59.158Z,32.33
2022-08-17T00:41:08.269Z,33.17
2022-08-17T00:51:50.665Z,35.17
2022-08-17T00:56:57.767Z,39.00
2022-08-17T01:02:00.665Z,34.72
2022-08-17T01:07:04.525Z,33.90
2022-08-17T01:12:09.246Z,30.92
2022-08-17T01:17:11.407Z,35.17
2022-08-17T01:22:12.950Z,33.00
2022-08-17T01:27:16.492Z,33.72
2022-08-17T01:32:20.540Z,33.47
2022-08-17T01:37:30.689Z,34.33
2022-08-17T01:42:41.995Z,31.95
2022-08-17T01:47:43.865Z,35.60
2022-08-17T01:52:52.247Z,34.08
2022-08-17T01:57:53.987Z,34.10
2022-08-17T02:02:55.741Z,32.58
2022-08-17T02:08:00.522Z,32.78
2022-08-17T02:13:04.333Z,32.97
2022-08-17T02:18:07.714Z,36.50
2022-08-17T02:23:12.106Z,33.42
2022-08-17T02:28:13.728Z,30.90
2022-08-17T02:33:15.523Z,33.78
2022-08-17T02:38:17.528Z,37.75
2022-08-17T02:43:19.251Z,33.17
2022-08-17T02:48:30.450Z,33.03
2022-08-17T02:53:35.659Z,24.45
2022-08-17T02:58:38.126Z,26.90
2022-08-17T03:03:40.379Z,25.23
2022-08-17T03:08:42.006Z,31.40
2022-08-17T03:13:43.639Z,25.90
2022-08-17T03:18:45.317Z,22.73
2022-08-17T03:23:47.073Z,22.30
2022-08-17T03:28:56.165Z,18.50
2022-08-17T03:33:58.024Z,21.67
2022-08-17T03:39:00.603Z,26.05
2022-08-17T03:44:02.536Z,25.17
2022-08-17T03:49:24.765Z,24.48
2022-08-17T03:54:44.997Z,21.27
2022-08-17T03:59:47.613Z,16.75
2022-08-17T04:04:52.895Z,17.10
2022-08-17T04:09:54.506Z,16.52
2022-08-17T04:14:56.758Z,18.15
2022-08-17T04:19:58.448Z,21.60
2022-08-17T04:25:01.761Z,20.73
2022-08-17T04:30:07.061Z,21.65
2022-08-17T04:35:09.286Z,21.35
2022-08-17T04:40:30.426Z,19.63
2022-08-17T04:45:32.596Z,19.67
2022-08-17T04:50:36.929Z,20.38
2022-08-17T04:55:42.403Z,19.38
2022-08-17T05:01:10.948Z,21.95
2022-08-17T05:06:12.642Z,19.30
2022-08-17T05:11:14.885Z,19.92
2022-08-17T05:16:18.088Z,19.98
2022-08-17T05:21:23.150Z,23.00
2022-08-17T05:26:31.914Z,19.52
2022-08-17T05:31:38.479Z,19.75
2022-08-17T05:36:42.950Z,21.77
2022-08-17T05:41:47.882Z,20.17
2022-08-17T05:47:02.939Z,17.95
2022-08-17T05:52:33.699Z,16.02
2022-08-17T05:57:39.484Z,20.50
2022-08-17T06:02:54.781Z,21.50
2022-08-17T06:08:12.215Z,23.10
2022-08-17T06:13:42.548Z,24.50
2022-08-17T06:18:59.568Z,23.83
2022-08-17T06:24:21.747Z,21.13
2022-08-17T06:29:49.028Z,20.42
2022-08-17T06:34:52.202Z,17.45
2022-08-17T06:40:22.162Z,17.05
2022-08-17T06:45:31.137Z,16.75
2022-08-17T06:50:53.569Z,15.07
2022-08-17T06:56:09.959Z,15.93
2022-08-17T07:01:20.792Z,13.10
2022-08-17T07:06:27.816Z,12.35
2022-08-17T07:11:49.032Z,11.63
2022-08-17T07:16:54.992Z,10.07
2022-08-17T07:22:50.591Z,10.60
2022-08-17T07:28:06.870Z,8.38
2022-08-17T07:33:13.604Z,8.10
2022-08-17T07:38:28.096Z,7.40
2022-08-17T07:43:52.442Z,8.35
2022-08-17T07:48:57.101Z,7.15
2022-08-17T07:54:13.990Z,7.07
2022-08-17T07:59:23.675Z,7.03
2022-08-17T08:10:27.939Z,7.18
2022-08-17T08:15:37.361Z,8.93
2022-08-17T08:20:57.796Z,9.25
2022-08-17T08:26:18.382Z,7.05
2022-08-17T08:31:42.511Z,7.18
2022-08-17T08:37:12.856Z,7.80
2022-08-17T08:42:48.986Z,8.00
2022-08-17T08:47:53.919Z,8.82
2022-08-17T08:53:11.619Z,7.47
2022-08-17T08:58:31.789Z,9.60
2022-08-17T09:03:53.203Z,6.35
2022-08-17T09:09:04.652Z,6.80
2022-08-17T09:14:21.811Z,6.85
2022-08-17T09:19:44.856Z,6.95
2022-08-17T09:24:57.192Z,6.07
2022-08-17T09:30:02.576Z,6.18
2022-08-17T09:35:15.397Z,5.95
2022-08-17T09:40:32.644Z,6.18
2022-08-17T09:45:50.759Z,6.82
2022-08-17T09:51:07.020Z,10.00
2022-08-17T09:56:24.196Z,8.65
2022-08-17T10:01:52.577Z,9.75
2022-08-17T10:07:43.032Z,14.00
2022-08-17T10:12:59.470Z,12.38
2022-08-17T10:18:23.867Z,13.80
2022-08-17T10:23:52.508Z,15.68
2022-08-17T10:29:00.536Z,15.60
2022-08-17T10:34:41.388Z,14.95
2022-08-17T10:40:09.937Z,16.05
2022-08-17T10:45:20.113Z,17.65
2022-08-17T10:50:49.604Z,15.98
2022-08-17T10:56:19.480Z,16.60
2022-08-17T11:01:37.921Z,20.00
2022-08-17T11:06:41.961Z,16.13
2022-08-17T11:11:56.487Z,16.60
2022-08-17T11:17:49.743Z,14.93
2022-08-17T11:23:10.140Z,15.52
2022-08-17T11:28:23.616Z,16.98
2022-08-17T11:33:34.236Z,16.98
2022-08-17T11:38:57.922Z,16.42
2022-08-17T11:44:21.946Z,13.10
2022-08-17T11:50:08.059Z,16.75
2022-08-17T11:55:36.309Z,19.33
2022-08-17T12:00:40.061Z,18.20
2022-08-17T12:05:43.392Z,16.77
2022-08-17T12:11:03.474Z,15.85
2022-08-17T12:16:05.455Z,14.45
2022-08-17T12:21:13.649Z,16.60
2022-08-17T12:26:19.906Z,15.43
2022-08-17T12:31:45.945Z,18.85
2022-08-17T12:36:51.197Z,16.20
2022-08-17T12:42:01.533Z,15.77
2022-08-17T12:47:19.352Z,16.95
2022-08-17T12:52:25.319Z,17.05
2022-08-17T12:57:33.226Z,17.17
2022-08-17T13:02:42.904Z,18.67
2022-08-17T13:07:46.642Z,17.02
2022-08-17T13:12:51.043Z,16.35
2022-08-17T13:17:59.340Z,17.15
2022-08-17T13:23:11.579Z,17.33
2022-08-17T13:28:35.800Z,17.40
2022-08-17T13:33:44.793Z,18.40
2022-08-17T13:38:49.780Z,16.60
2022-08-17T13:43:51.347Z,15.65
2022-08-17T13:49:09.986Z,17.02
2022-08-17T13:54:37.753Z,16.33
2022-08-17T13:59:54.707Z,15.63
2022-08-17T14:04:58.408Z,15.88
2022-08-17T14:10:12.584Z,15.65
2022-08-17T14:15:16.316Z,15.52
2022-08-17T14:20:21.231Z,14.73
2022-08-17T14:25:27.044Z,14.23
2022-08-17T14:48:07.594Z,13.50
2022-08-17T14:53:13.707Z,13.32
2022-08-17T14:58:42.563Z,13.02
2022-08-17T15:03:44.314Z,13.73
2022-08-17T15:08:46.182Z,15.48
2022-08-17T15:13:52.462Z,14.30
2022-08-17T15:18:55.032Z,13.35
2022-08-17T15:23:57.308Z,11.95
2022-08-17T15:28:58.887Z,12.73
2022-08-17T15:40:47.700Z,10.32
2022-08-17T15:46:17.524Z,10.63
2022-08-17T15:51:28.577Z,11.65
2022-08-17T15:56:31.679Z,11.13
2022-08-17T16:03:01.055Z,11.80
2022-08-17T16:06:55.741Z,11.32
2022-08-17T16:11:57.564Z,11.82
2022-08-17T16:16:59.417Z,11.32
2022-08-17T16:22:01.822Z,11.02
2022-08-17T16:27:04.182Z,11.52
2022-08-17T16:32:21.824Z,10.57
2022-08-17T16:43:00.228Z,11.23
2022-08-17T16:48:02.493Z,9.88
2022-08-17T16:53:17.136Z,10.43
2022-08-17T16:58:19.149Z,10.13
2022-08-17T17:03:24.931Z,10.90
2022-08-17T17:08:31.419Z,8.73
2022-08-17T17:13:43.850Z,9.27
2022-08-17T17:19:10.585Z,8.55
2022-08-17T17:24:36.875Z,8.95
2022-08-17T17:29:50.390Z,8.45
2022-08-17T17:35:00.977Z,9.02
2022-08-17T17:40:13.531Z,7.88
2022-08-17T17:45:31.984Z,7.28
2022-08-17T17:50:37.939Z,8.02
2022-08-17T17:56:01.667Z,8.70
2022-08-17T18:01:23.967Z,7.38
2022-08-17T18:06:36.278Z,7.18
2022-08-17T18:11:59.107Z,6.85
2022-08-17T18:17:02.207Z,9.48
2022-08-17T18:22:24.435Z,7.70
2022-08-17T18:27:40.227Z,8.80
2022-08-17T18:32:46.510Z,7.63
2022-08-17T18:37:54.184Z,7.68
2022-08-17T18:43:03.995Z,7.57
2022-08-17T18:48:17.907Z,6.53
2022-08-17T18:53:38.714Z,9.40
2022-08-17T18:58:40.549Z,9.07
2022-08-17T19:03:43.380Z,8.98
2022-08-17T19:08:45.044Z,6.88
2022-08-17T19:13:54.688Z,8.68
2022-08-17T19:19:02.917Z,8.55
2022-08-17T19:24:21.948Z,6.95
2022-08-17T19:29:53.793Z,8.48
2022-08-17T19:34:56.853Z,8.43
2022-08-17T19:40:51.759Z,11.32
2022-08-17T19:46:07.942Z,6.32
2022-08-17T19:51:18.213Z,6.28
2022-08-17T19:56:35.133Z,9.15
2022-08-17T20:01:49.236Z,8.63
2022-08-17T20:06:51.989Z,8.80
2022-08-17T20:12:05.386Z,6.28
2022-08-17T20:17:07.236Z,7.68
2022-08-17T20:22:21.190Z,9.38
2022-08-17T20:27:34.465Z,7.85
2022-08-17T20:32:48.311Z,11.40
2022-08-17T20:37:58.761Z,8.40
2022-08-17T20:43:35.578Z,6.95
2022-08-17T20:48:42.710Z,6.72
2022-08-17T20:53:47.184Z,6.22
2022-08-17T20:58:48.900Z,8.00
2022-08-17T21:03:51.835Z,8.43
2022-08-17T21:09:18.035Z,7.05
2022-08-17T21:14:32.701Z,7.47
2022-08-17T21:20:00.531Z,6.32
2022-08-17T21:25:12.113Z,7.53
2022-08-17T21:30:23.414Z,7.45
2022-08-17T21:35:30.064Z,6.75
2022-08-17T21:40:33.807Z,9.00
2022-08-17T21:45:40.311Z,8.70
2022-08-17T21:50:46.158Z,8.50
2022-08-17T21:55:49.087Z,6.70
2022-08-17T22:01:20.611Z,8.73
2022-08-17T22:06:43.193Z,7.22
2022-08-17T22:12:21.981Z,9.45
2022-08-17T22:17:28.191Z,7.50
2022-08-17T22:22:35.014Z,6.82
2022-08-17T22:28:01.272Z,9.43
2022-08-17T22:33:31.506Z,9.80
2022-08-17T22:38:33.203Z,7.03
2022-08-17T22:43:38.515Z,9.25
2022-08-17T22:48:49.251Z,9.73
2022-08-17T22:54:21.951Z,8.50
2022-08-17T22:59:54.429Z,6.35
2022-08-17T23:05:10.736Z,9.57
2022-08-17T23:10:13.751Z,6.00
2022-08-17T23:15:19.174Z,6.90
2022-08-17T23:20:20.894Z,7.35
2022-08-17T23:25:28.220Z,7.32
2022-08-17T23:30:33.665Z,6.22
2022-08-17T23:35:39.011Z,12.77
2022-08-17T23:40:42.534Z,5.68
2022-08-17T23:45:44.123Z,6.82
2022-08-17T23:50:45.772Z,5.95
2022-08-17T23:55:47.647Z,6.78
